Time;durP1;ratioP1;P1;durP2;ratioP2;P2;SDS_P1;SDS_P2;PMS_P1;PMS_P2;Temp;Humidity;BMP_temperature;BMP_pressure;BME280_temperature;BME280_humidity;BME280_pressure;Samples;Min_cycle;Max_cycle;Signal;HPM_P1;HPM_P2
2021/05/12 00:01:55;;;;;;;6.53;4.97;;;13.20;64.60;;;;;;5097601;28;20587;-79
2021/05/12 00:04:20;;;;;;;6.23;5.10;;;13.30;65.10;;;;;;5114973;28;20242;-79
2021/05/12 00:06:46;;;;;;;7.63;4.93;;;13.30;65.20;;;;;;5115611;28;20657;-80
2021/05/12 00:09:12;;;;;;;6.97;4.93;;;13.30;64.10;;;;;;5115964;28;20615;-80
2021/05/12 00:11:37;;;;;;;5.87;4.77;;;13.30;64.10;;;;;;5116050;28;20162;-79
2021/05/12 00:14:03;;;;;;;5.90;5.30;;;13.30;63.40;;;;;;5115564;28;20250;-78
2021/05/12 00:16:29;;;;;;;8.10;5.37;;;13.40;62.00;;;;;;5115834;28;20266;-78
2021/05/12 00:18:55;;;;;;;5.67;4.97;;;13.50;60.10;;;;;;5115915;28;20185;-81
2021/05/12 00:24:09;;;;;;;6.73;5.27;;;13.30;58.40;;;;;;5087142;28;20250;-78
2021/05/12 00:26:39;;;;;;;6.40;5.27;;;13.40;59.50;;;;;;5115422;28;20179;-79
2021/05/12 00:29:06;;;;;;;8.07;5.27;;;13.40;58.10;;;;;;5115722;28;20195;-80
2021/05/12 00:31:32;;;;;;;8.80;6.00;;;13.50;56.70;;;;;;5115577;28;20267;-79
2021/05/12 00:33:58;;;;;;;7.17;5.47;;;13.50;53.00;;;;;;5115326;28;20273;-80
2021/05/12 00:36:24;;;;;;;8.87;5.93;;;13.60;47.70;;;;;;5115487;28;20176;-79
2021/05/12 00:38:49;;;;;;;7.70;6.00;;;13.50;47.80;;;;;;5115473;28;20172;-81
2021/05/12 00:41:15;;;;;;;8.83;6.27;;;13.40;47.50;;;;;;5115254;28;20171;-79
2021/05/12 00:43:41;;;;;;;9.13;6.67;;;13.30;49.80;;;;;;5115514;28;20198;-77
2021/05/12 00:46:06;;;;;;;10.93;6.87;;;13.20;50.60;;;;;;5115409;28;20246;-78
2021/05/12 00:48:32;;;;;;;10.33;7.33;;;13.20;52.10;;;;;;5115186;28;20234;-79
2021/05/12 00:50:58;;;;;;;9.33;7.17;;;13.10;50.70;;;;;;5115305;28;20194;-77
2021/05/12 00:53:23;;;;;;;10.93;7.80;;;13.00;50.50;;;;;;5114988;28;20180;-78
2021/05/12 00:55:49;;;;;;;10.17;7.40;;;13.00;50.50;;;;;;5114608;28;20216;-78
2021/05/12 00:58:15;;;;;;;9.33;7.07;;;13.00;50.80;;;;;;5114866;28;20228;-78
2021/05/12 01:00:41;;;;;;;10.90;7.80;;;12.90;50.10;;;;;;5114920;28;20166;-78
2021/05/12 01:03:07;;;;;;;11.40;7.87;;;12.90;50.90;;;;;;5114587;28;20667;-80
2021/05/12 01:05:35;;;;;;;11.07;7.07;;;12.90;49.40;;;;;;5114856;28;20658;-80
2021/05/12 01:08:02;;;;;;;11.17;8.03;;;12.80;50.70;;;;;;5114795;28;20262;-78
2021/05/12 01:10:28;;;;;;;11.23;7.83;;;12.90;47.80;;;;;;5114548;28;20263;-76
2021/05/12 01:12:54;;;;;;;12.17;7.50;;;13.10;40.70;;;;;;5114858;28;20279;-78
2021/05/12 01:15:20;;;;;;;11.93;7.67;;;13.10;30.80;;;;;;5114824;28;20178;-79
2021/05/12 01:17:46;;;;;;;14.37;7.50;;;12.90;37.40;;;;;;5114728;28;20167;-78
2021/05/12 01:20:12;;;;;;;13.67;7.73;;;12.80;43.20;;;;;;5114521;28;20171;-78
2021/05/12 01:22:39;;;;;;;13.97;7.20;;;12.70;45.90;;;;;;5114307;28;20540;-79
2021/05/12 01:25:07;;;;;;;13.67;7.83;;;12.60;47.90;;;;;;5114141;28;20219;-79
2021/05/12 01:27:33;;;;;;;12.03;7.03;;;12.50;48.90;;;;;;5114427;28;20167;-81
2021/05/12 01:29:58;;;;;;;12.80;6.80;;;12.50;49.10;;;;;;5114405;28;20213;-78
2021/05/12 01:32:29;;;;;;;12.43;7.00;;;12.40;47.00;;;;;;5114451;28;20174;-79
2021/05/12 01:35:04;;;;;;;8.83;6.87;;;12.40;46.80;;;;;;5114187;28;20194;-79
2021/05/12 01:37:29;;;;;;;12.47;6.80;;;12.40;46.00;;;;;;5113797;28;20174;-81
2021/05/12 01:39:55;;;;;;;12.97;7.30;;;12.40;42.90;;;;;;5114121;28;20163;-76
2021/05/12 01:42:21;;;;;;;11.67;6.53;;;12.40;40.60;;;;;;5114403;28;20217;-76
2021/05/12 01:44:46;;;;;;;11.63;6.93;;;12.50;33.20;;;;;;5114231;28;20186;-80
2021/05/12 01:47:12;;;;;;;11.13;6.03;;;12.50;29.30;;;;;;5114163;28;20213;-79
2021/05/12 01:49:38;;;;;;;15.00;6.33;;;12.30;33.30;;;;;;5113887;28;20209;-80
2021/05/12 01:52:04;;;;;;;10.77;6.30;;;12.20;35.70;;;;;;5096014;28;20178;-80
2021/05/12 01:54:29;;;;;;;10.63;6.20;;;12.20;33.80;;;;;;5112667;28;20170;-78
2021/05/12 01:56:55;;;;;;;10.70;5.87;;;12.20;36.20;;;;;;5114136;28;20224;-78
2021/05/12 01:59:21;;;;;;;11.43;6.03;;;12.30;28.20;;;;;;5096510;28;20232;-79
2021/05/12 02:01:46;;;;;;;12.93;6.10;;;12.30;26.80;;;;;;5113853;28;20175;-79
2021/05/12 02:04:12;;;;;;;12.60;6.03;;;12.30;24.90;;;;;;5113543;28;20198;-78
2021/05/12 02:06:38;;;;;;;8.43;5.53;;;12.30;25.40;;;;;;5095715;28;20167;-80
2021/05/12 02:09:06;;;;;;;11.80;5.80;;;12.40;25.70;;;;;;5113281;28;20241;-76
2021/05/12 02:11:33;;;;;;;16.53;6.40;;;12.20;27.10;;;;;;5113897;28;20254;-79
2021/05/12 02:13:59;;;;;;;8.77;6.00;;;12.10;27.70;;;;;;5113618;28;20167;-78
2021/05/12 02:16:24;;;;;;;10.53;6.17;;;12.30;19.40;;;;;;5095532;28;20225;-77
2021/05/12 02:18:50;;;;;;;11.17;5.67;;;12.20;23.00;;;;;;5113385;28;20182;-78
2021/05/12 02:21:16;;;;;;;10.60;5.10;;;12.00;28.30;;;;;;5113675;28;20194;-79
2021/05/12 02:23:41;;;;;;;10.03;5.67;;;12.00;30.80;;;;;;5112775;28;20202;-84
2021/05/12 02:26:07;;;;;;;11.47;5.43;;;11.90;34.30;;;;;;5113182;28;20574;-77
2021/05/12 02:28:32;;;;;;;11.70;5.50;;;11.90;38.30;;;;;;5113318;28;20205;-78
2021/05/12 02:30:58;;;;;;;12.03;5.73;;;11.90;37.70;;;;;;5113152;28;20175;-79
2021/05/12 02:33:24;;;;;;;13.20;5.93;;;11.90;39.00;;;;;;5113200;28;20198;-78
2021/05/12 02:35:49;;;;;;;9.87;5.70;;;11.90;36.10;;;;;;5112981;28;20855;-79
2021/05/12 02:38:16;;;;;;;7.07;5.60;;;11.90;35.10;;;;;;5112839;28;20182;-79
2021/05/12 02:40:41;;;;;;;10.03;5.50;;;11.80;38.10;;;;;;5113132;28;20178;-75
2021/05/12 02:43:07;;;;;;;10.60;5.70;;;11.70;41.50;;;;;;5113165;28;20171;-77
2021/05/12 02:45:33;;;;;;;12.30;5.60;;;11.70;45.60;;;;;;5112726;28;20689;-78
2021/05/12 02:48:01;;;;;;;9.87;5.60;;;11.60;47.70;;;;;;5111673;28;20175;-79
2021/05/12 02:50:33;;;;;;;10.07;5.90;;;11.70;46.80;;;;;;5112674;28;20183;-81
2021/05/12 02:53:00;;;;;;;8.63;5.60;;;11.70;42.60;;;;;;5112466;28;20244;-77
2021/05/12 02:55:27;;;;;;;12.10;6.03;;;11.60;45.20;;;;;;5112610;28;20215;-79
2021/05/12 02:57:54;;;;;;;9.13;5.73;;;11.70;45.50;;;;;;5112806;28;20163;-77
2021/05/12 03:00:21;;;;;;;8.83;5.53;;;11.70;42.80;;;;;;5112762;28;20190;-78
2021/05/12 03:02:47;;;;;;;9.17;5.43;;;11.70;39.50;;;;;;5113158;28;20198;-78
2021/05/12 03:05:13;;;;;;;10.87;5.87;;;11.60;40.20;;;;;;5094648;28;20175;-76
2021/05/12 03:07:39;;;;;;;7.27;5.13;;;11.60;41.80;;;;;;5112817;28;20174;-79
2021/05/12 03:10:11;;;;;;;14.37;6.17;;;11.40;45.40;;;;;;5112721;28;20202;-80
2021/05/12 03:12:37;;;;;;;9.40;5.47;;;11.30;51.30;;;;;;5112940;28;20175;-79
2021/05/12 03:15:07;;;;;;;10.90;5.33;;;11.20;53.90;;;;;;5112714;28;20247;-78
2021/05/12 03:17:32;;;;;;;8.27;5.20;;;11.20;54.20;;;;;;5112785;28;20202;-80
2021/05/12 03:19:58;;;;;;;7.73;5.23;;;11.30;55.10;;;;;;5112890;28;20199;-79
2021/05/12 03:22:24;;;;;;;8.23;5.13;;;11.20;54.60;;;;;;5112151;28;20173;-79
2021/05/12 03:24:49;;;;;;;7.77;5.47;;;11.20;53.70;;;;;;5112667;28;20275;-78
2021/05/12 03:27:15;;;;;;;9.57;5.37;;;11.20;54.30;;;;;;5112689;28;20643;-77
2021/05/12 03:29:41;;;;;;;7.67;5.63;;;11.20;54.90;;;;;;5112647;28;20214;-78
2021/05/12 03:32:06;;;;;;;8.83;6.13;;;11.10;55.40;;;;;;5112924;28;20163;-77
2021/05/12 03:34:32;;;;;;;9.20;5.40;;;11.10;56.60;;;;;;5112781;28;20657;-76
2021/05/12 03:36:58;;;;;;;7.87;5.30;;;11.10;56.70;;;;;;5112433;28;20163;-76
2021/05/12 03:39:24;;;;;;;7.90;5.23;;;11.20;52.60;;;;;;5112419;28;20179;-79
2021/05/12 03:41:49;;;;;;;9.27;6.03;;;11.20;51.00;;;;;;5112422;28;20672;-78
2021/05/12 03:44:15;;;;;;;8.83;5.77;;;11.20;52.70;;;;;;5112575;28;20254;-77
2021/05/12 03:46:40;;;;;;;10.50;5.70;;;11.20;51.40;;;;;;5112444;28;20664;-78
2021/05/12 03:49:06;;;;;;;7.50;5.03;;;11.20;51.90;;;;;;5112641;28;20250;-79
2021/05/12 03:51:32;;;;;;;8.93;5.90;;;11.10;53.90;;;;;;5112220;28;20163;-80
2021/05/12 03:53:57;;;;;;;12.30;5.90;;;11.10;56.50;;;;;;5094304;28;20261;-77
2021/05/12 03:56:23;;;;;;;11.23;5.77;;;11.20;57.00;;;;;;5094034;28;20574;-80
2021/05/12 03:58:49;;;;;;;10.47;5.53;;;11.10;55.00;;;;;;5112582;28;20203;-77
2021/05/12 04:01:14;;;;;;;9.83;5.03;;;11.20;53.70;;;;;;5115794;28;20167;-80
2021/05/12 04:03:40;;;;;;;8.53;5.37;;;11.20;51.20;;;;;;5116056;28;20198;-78
2021/05/12 04:06:06;;;;;;;8.23;5.13;;;11.20;51.00;;;;;;5115606;28;20170;-81
2021/05/12 04:08:31;;;;;;;9.93;5.60;;;11.20;49.80;;;;;;5115931;28;20243;-78
2021/05/12 04:10:57;;;;;;;9.63;5.60;;;11.20;50.00;;;;;;5116127;28;20170;-78
2021/05/12 04:13:23;;;;;;;8.33;4.87;;;11.20;51.10;;;;;;5115864;28;20171;-79
2021/05/12 04:15:49;;;;;;;9.50;5.40;;;11.20;49.60;;;;;;5115957;28;20190;-80
2021/05/12 04:18:16;;;;;;;10.07;5.77;;;11.30;49.00;;;;;;5115527;28;20627;-80
2021/05/12 04:20:41;;;;;;;9.30;6.07;;;11.40;48.00;;;;;;5115919;28;20214;-81
2021/05/12 04:23:07;;;;;;;10.17;6.00;;;11.40;46.70;;;;;;5115830;28;20177;-79
2021/05/12 04:25:33;;;;;;;8.60;5.63;;;11.40;46.10;;;;;;5115282;28;20261;-80
2021/05/12 04:27:59;;;;;;;7.57;5.13;;;11.50;45.50;;;;;;5115666;28;20242;-79
2021/05/12 04:30:27;;;;;;;9.03;5.60;;;11.50;45.60;;;;;;5115757;28;20218;-78
2021/05/12 04:32:55;;;;;;;9.23;5.43;;;11.60;44.20;;;;;;5115127;28;20167;-80
2021/05/12 04:35:21;;;;;;;10.13;5.83;;;11.60;42.90;;;;;;5115422;28;20244;-80
2021/05/12 04:37:47;;;;;;;9.90;5.43;;;11.70;36.70;;;;;;5115538;28;20159;-78
2021/05/12 04:40:13;;;;;;;10.40;5.07;;;11.70;38.20;;;;;;5115540;28;20171;-76
2021/05/12 04:42:39;;;;;;;8.07;5.00;;;11.70;35.50;;;;;;5115324;28;20167;-81
2021/05/12 04:45:06;;;;;;;8.43;4.80;;;11.80;33.90;;;;;;5096934;28;20186;-79
2021/05/12 04:47:32;;;;;;;9.40;5.60;;;12.00;25.40;;;;;;5114519;28;20181;-79
2021/05/12 04:49:58;;;;;;;8.77;4.90;;;12.10;16.10;;;;;;5097078;28;20699;-78
2021/05/12 04:52:23;;;;;;;9.60;5.57;;;12.20;13.00;;;;;;5115277;28;20205;-80
2021/05/12 04:54:49;;;;;;;10.57;5.70;;;12.20;11.90;;;;;;5115208;28;20627;-77
2021/05/12 04:57:15;;;;;;;9.37;5.67;;;12.30;10.80;;;;;;5114864;28;20539;-78
2021/05/12 04:59:41;;;;;;;8.90;5.23;;;12.40;5.60;;;;;;5114761;28;20224;-79
2021/05/12 05:02:09;;;;;;;9.67;5.47;;;12.40;1.00;;;;;;5096118;28;20177;-79
2021/05/12 05:04:35;;;;;;;10.77;4.97;;;12.40;1.00;;;;;;5114774;28;20232;-77
2021/05/12 05:07:02;;;;;;;10.00;5.10;;;12.40;1.00;;;;;;5114733;28;20163;-78
2021/05/12 05:09:28;;;;;;;10.03;5.10;;;12.50;1.00;;;;;;5114436;28;20222;-77
2021/05/12 05:11:53;;;;;;;10.33;5.03;;;12.60;1.00;;;;;;5113389;28;20194;-79
2021/05/12 05:14:19;;;;;;;11.50;5.30;;;12.70;1.00;;;;;;5114488;28;20474;-79
2021/05/12 05:16:45;;;;;;;8.03;4.90;;;12.60;1.00;;;;;;5113706;28;20168;-76
2021/05/12 05:19:10;;;;;;;7.60;4.90;;;12.70;1.00;;;;;;5113907;28;20214;-77
2021/05/12 05:21:36;;;;;;;9.30;4.33;;;12.70;1.00;;;;;;5113926;28;20166;-77
2021/05/12 05:24:02;;;;;;;8.37;4.67;;;12.60;1.00;;;;;;5113043;28;20536;-77
2021/05/12 05:26:28;;;;;;;9.20;4.97;;;12.60;1.00;;;;;;5113341;28;20206;-78
2021/05/12 05:28:53;;;;;;;11.13;4.70;;;12.50;1.00;;;;;;5113816;28;20194;-79
2021/05/12 05:31:19;;;;;;;10.40;5.00;;;12.50;1.00;;;;;;5114004;28;20163;-78
2021/05/12 05:33:50;;;;;;;9.73;5.13;;;12.70;1.00;;;;;;5113712;28;20595;-79
2021/05/12 05:36:16;;;;;;;6.93;4.33;;;12.80;1.00;;;;;;5114064;28;20192;-80
2021/05/12 05:38:44;;;;;;;9.97;4.53;;;12.90;1.00;;;;;;5113873;28;20686;-79
2021/05/12 05:41:10;;;;;;;11.73;4.67;;;12.80;1.00;;;;;;5114326;28;20700;-79
2021/05/12 05:43:38;;;;;;;14.97;5.77;;;12.80;1.00;;;;;;5113748;28;20167;-79
2021/05/12 05:46:04;;;;;;;22.43;6.20;;;12.80;1.00;;;;;;5095127;28;20353;-78
2021/05/12 05:48:45;;;;;;;11.23;4.77;;;12.80;1.00;;;;;;5112942;28;20206;-80
2021/05/12 05:51:11;;;;;;;9.27;4.70;;;12.70;1.00;;;;;;5094599;28;20593;-78
2021/05/12 05:53:36;;;;;;;10.87;5.13;;;12.90;1.00;;;;;;5112429;28;20179;-79
2021/05/12 05:56:02;;;;;;;11.30;4.77;;;13.00;1.00;;;;;;5112510;28;20182;-79
2021/05/12 05:58:37;;;;;;;12.37;4.97;;;13.00;1.00;;;;;;5112825;28;20179;-76
2021/05/12 06:01:05;;;;;;;11.63;4.77;;;13.20;1.00;;;;;;5113025;28;20170;-80
2021/05/12 06:04:32;;;;;;;8.63;4.30;;;13.30;1.00;;;;;;5094190;28;20601;-78
2021/05/12 06:06:58;;;;;;;9.33;3.77;;;13.50;1.00;;;;;;5102278;28;20627;-79
2021/05/12 06:09:24;;;;;;;9.80;3.73;;;13.50;1.00;;;;;;5113023;28;20214;-77
2021/05/12 06:12:03;;;;;;;7.47;3.50;;;13.60;1.00;;;;;;5112270;28;20190;-79
2021/05/12 06:14:50;;;;;;;10.63;4.77;;;13.60;1.00;;;;;;5094023;28;20241;-82
2021/05/12 06:17:36;;;;;;;6.63;3.50;;;13.50;1.00;;;;;;5093168;28;20227;-79
2021/05/12 06:20:06;;;;;;;11.13;4.10;;;13.50;1.00;;;;;;5112771;28;20249;-82
2021/05/12 06:22:59;;;;;;;5.90;3.30;;;13.80;1.00;;;;;;5119633;27;20162;-80
2021/05/12 06:25:25;;;;;;;7.37;3.07;;;13.90;1.00;;;;;;5119797;27;20197;-81
2021/05/12 06:27:50;;;;;;;8.33;3.60;;;13.80;1.00;;;;;;5093681;28;20989;-80
2021/05/12 06:30:16;;;;;;;9.87;4.23;;;13.80;1.00;;;;;;5112011;28;20202;-82
2021/05/12 06:32:43;;;;;;;8.10;3.20;;;13.90;1.00;;;;;;5112577;28;20650;-79
2021/05/12 06:35:09;;;;;;;11.53;3.50;;;14.00;1.00;;;;;;5112111;28;20175;-79
2021/05/12 06:37:35;;;;;;;12.47;4.43;;;14.00;1.00;;;;;;5112146;28;20567;-81
2021/05/12 06:40:00;;;;;;;11.70;4.40;;;14.00;1.00;;;;;;5094091;28;20197;-82
2021/05/12 06:42:26;;;;;;;10.03;4.03;;;14.00;1.00;;;;;;5112520;28;20179;-79
2021/05/12 06:44:52;;;;;;;13.80;3.93;;;13.90;1.00;;;;;;5111807;28;20171;-80
2021/05/12 06:47:17;;;;;;;10.60;4.37;;;14.10;1.00;;;;;;5112404;28;20178;-80
2021/05/12 06:49:43;;;;;;;7.47;3.30;;;14.30;1.00;;;;;;5112267;28;20198;-79
2021/05/12 06:52:08;;;;;;;9.67;3.53;;;14.20;1.00;;;;;;5112577;28;20178;-79
2021/05/12 06:54:34;;;;;;;7.57;2.90;;;14.40;1.00;;;;;;5112530;28;20167;-79
2021/05/12 06:57:00;;;;;;;7.77;3.43;;;14.70;99.90;;;;;;5111899;28;20223;-80
2021/05/12 06:59:25;;;;;;;8.90;2.80;;;14.60;99.90;;;;;;5112042;28;20171;-79
2021/05/12 07:01:52;;;;;;;16.03;4.33;;;14.60;89.70;;;;;;5093033;28;20179;-80
2021/05/12 07:04:19;;;;;;;12.23;3.70;;;14.40;99.90;;;;;;5112358;28;20267;-78
2021/05/12 07:06:44;;;;;;;10.73;3.37;;;14.30;99.90;;;;;;5094296;28;20179;-81
2021/05/12 07:09:10;;;;;;;6.90;3.23;;;14.20;99.90;;;;;;5112992;28;20214;-80
2021/05/12 07:11:38;;;;;;;6.60;2.60;;;14.40;99.90;;;;;;5112437;28;20252;-78
2021/05/12 07:14:08;;;;;;;9.10;3.30;;;14.50;99.90;;;;;;5112075;28;20178;-78
2021/05/12 07:16:39;;;;;;;10.03;3.20;;;14.70;99.90;;;;;;5112366;28;20567;-79
2021/05/12 07:19:05;;;;;;;12.70;3.53;;;14.60;99.90;;;;;;5112508;28;20187;-78
2021/05/12 07:21:31;;;;;;;9.33;2.80;;;14.50;99.90;;;;;;5112147;28;20167;-80
2021/05/12 07:23:57;;;;;;;10.80;2.83;;;14.50;99.90;;;;;;5111680;28;20183;-79
2021/05/12 07:26:24;;;;;;;9.57;2.87;;;14.70;22.40;;;;;;5094107;28;20171;-79
2021/05/12 07:28:50;;;;;;;9.67;3.27;;;15.00;11.30;;;;;;5092167;28;20645;-80
2021/05/12 07:31:15;;;;;;;10.07;3.27;;;14.70;99.90;;;;;;5087659;28;20215;-80
2021/05/12 07:33:50;;;;;;;8.97;3.00;;;14.60;1.00;;;;;;5091447;28;20198;-80
2021/05/12 07:36:26;;;;;;;12.30;3.50;;;14.60;99.90;;;;;;5096314;28;20171;-79
2021/05/12 07:38:52;;;;;;;13.97;3.20;;;14.70;99.90;;;;;;5096006;28;20167;-77
2021/05/12 07:41:17;;;;;;;8.87;3.07;;;14.90;1.00;;;;;;5114622;27;20174;-80
2021/05/12 07:43:52;;;;;;;10.37;3.63;;;14.90;99.90;;;;;;5097806;28;20604;-79
2021/05/12 07:46:28;;;;;;;12.03;3.10;;;15.10;1.00;;;;;;5116865;28;20166;-80
2021/05/12 07:49:18;;;;;;;13.13;3.50;;;15.10;1.00;;;;;;5116364;28;20499;-78
2021/05/12 07:52:15;;;;;;;;;;;;;;;;;;;;;
2021/05/12 07:54:42;;;;;;;8.80;2.93;;;15.60;1.00;;;;;;5116742;28;20178;-80
2021/05/12 07:57:08;;;;;;;10.20;3.00;;;15.60;99.90;;;;;;5115956;28;20192;-78
2021/05/12 07:59:34;;;;;;;8.53;3.40;;;15.50;99.90;;;;;;5116405;28;20180;-79
2021/05/12 08:02:02;;;;;;;9.60;3.00;;;15.70;1.00;;;;;;5116307;28;20176;-80
2021/05/12 08:04:28;;;;;;;9.90;3.20;;;15.80;16.40;;;;;;5116890;28;20223;-78
2021/05/12 08:06:54;;;;;;;10.60;3.53;;;16.10;1.00;;;;;;5115609;28;20175;-80
2021/05/12 08:09:19;;;;;;;14.03;3.33;;;16.40;1.00;;;;;;5116670;28;20260;-78
2021/05/12 08:11:45;;;;;;;9.57;3.13;;;16.50;99.90;;;;;;5116185;28;20163;-78
2021/05/12 08:14:11;;;;;;;12.70;3.30;;;16.40;1.00;;;;;;5115574;28;20180;-82
2021/05/12 08:16:36;;;;;;;10.90;3.10;;;16.40;99.90;;;;;;5116239;28;20501;-81
2021/05/12 08:19:02;;;;;;;15.80;3.57;;;16.40;1.00;;;;;;5116195;28;20173;-79
2021/05/12 08:21:27;;;;;;;9.20;2.87;;;16.50;99.90;;;;;;5115263;28;20293;-79
2021/05/12 08:23:54;;;;;;;14.87;3.50;;;16.50;99.90;;;;;;5114970;28;20661;-80
2021/05/12 08:26:20;;;;;;;13.20;3.40;;;16.50;99.90;;;;;;5117426;28;20598;-80
2021/05/12 08:28:46;;;;;;;14.83;3.53;;;16.40;1.00;;;;;;5116548;28;20186;-81
2021/05/12 08:31:13;;;;;;;14.50;3.53;;;16.60;1.00;;;;;;5116250;28;20175;-78
2021/05/12 08:33:41;;;;;;;9.83;3.03;;;16.50;1.00;;;;;;5118792;28;20557;-78
2021/05/12 08:36:07;;;;;;;12.07;3.40;;;16.40;1.00;;;;;;5119669;28;20190;-78
2021/05/12 08:38:32;;;;;;;7.30;2.70;;;16.20;1.00;;;;;;5115944;28;21009;-80
2021/05/12 08:41:00;;;;;;;11.03;3.17;;;16.20;1.00;;;;;;5115002;28;20201;-79
2021/05/12 08:43:28;;;;;;;11.80;2.63;;;16.40;1.00;;;;;;5115079;28;20260;-77
2021/05/12 08:45:55;;;;;;;10.53;2.70;;;16.40;1.00;;;;;;5114240;28;20167;-77
2021/05/12 08:48:23;;;;;;;7.73;2.97;;;16.40;37.40;;;;;;5114372;28;20316;-86
2021/05/12 08:50:52;;;;;;;10.57;2.90;;;16.40;1.00;;;;;;5116847;28;20170;-82
2021/05/12 08:53:18;;;;;;;7.90;2.80;;;16.50;44.20;;;;;;5120694;28;20717;-82
2021/05/12 08:55:45;;;;;;;9.00;2.67;;;16.20;1.00;;;;;;5101205;28;20173;-81
2021/05/12 08:58:11;;;;;;;9.93;2.80;;;16.30;1.00;;;;;;5099678;28;20178;-82
2021/05/12 09:00:36;;;;;;;9.00;2.60;;;16.40;1.00;;;;;;5117247;28;20180;-83
2021/05/12 09:03:03;;;;;;;9.40;2.57;;;16.60;99.90;;;;;;5101712;28;20297;-85
2021/05/12 09:05:31;;;;;;;6.23;2.33;;;16.90;1.00;;;;;;5101282;28;20278;-89
2021/05/12 09:07:57;;;;;;;10.57;2.27;;;16.90;99.90;;;;;;5106091;28;20647;-86
2021/05/12 09:10:23;;;;;;;8.17;2.73;;;16.70;99.90;;;;;;5105381;28;20215;-83
2021/05/12 09:12:59;;;;;;;7.73;2.30;;;16.60;1.00;;;;;;5122544;28;20159;-90
2021/05/12 09:15:27;;;;;;;9.17;2.53;;;16.70;1.00;;;;;;5103615;28;20620;-80
2021/05/12 09:17:57;;;;;;;9.33;2.40;;;17.10;1.00;;;;;;5102245;28;20174;-83
2021/05/12 09:20:27;;;;;;;9.63;2.47;;;17.20;99.90;;;;;;5099166;28;20167;-80
2021/05/12 09:23:02;;;;;;;10.83;3.13;;;17.30;99.90;;;;;;5114717;28;20171;-79
2021/05/12 09:25:29;;;;;;;8.77;2.60;;;17.20;99.90;;;;;;5114863;28;20174;-78
2021/05/12 09:28:15;;;;;;;9.43;2.60;;;17.30;99.90;;;;;;5114046;28;20159;-78
2021/05/12 09:30:42;;;;;;;4.93;2.33;;;17.60;78.10;;;;;;5113185;28;20678;-80
2021/05/12 09:33:09;;;;;;;8.20;2.40;;;18.00;91.60;;;;;;5114491;28;20351;-78
2021/05/12 09:35:42;;;;;;;6.87;2.17;;;18.10;1.00;;;;;;5114532;28;20248;-80
2021/05/12 09:38:51;;;;;;;8.73;2.70;;;18.30;1.00;;;;;;5114229;28;20163;-79
2021/05/12 09:41:17;;;;;;;6.43;3.27;;;18.50;1.00;;;;;;5065565;28;20287;-80
2021/05/12 09:43:49;;;;;;;9.33;2.97;;;18.40;1.00;;;;;;5113746;28;20604;-80
2021/05/12 09:46:40;;;;;;;10.10;3.07;;;18.40;1.00;;;;;;5114071;28;20171;-79
2021/05/12 09:49:08;;;;;;;10.97;3.57;;;18.60;1.00;;;;;;5113189;28;20291;-79
2021/05/12 09:51:39;;;;;;;7.90;3.00;;;18.20;1.00;;;;;;5113443;28;20155;-80
2021/05/12 09:54:13;;;;;;;7.97;3.47;;;18.20;1.00;;;;;;5112707;28;20199;-79
2021/05/12 09:57:02;;;;;;;10.73;3.50;;;18.40;1.00;;;;;;5112849;28;20171;-80
2021/05/12 09:59:29;;;;;;;9.23;3.20;;;18.50;1.00;;;;;;5094434;28;20474;-78
2021/05/12 10:02:03;;;;;;;8.73;3.93;;;18.70;1.00;;;;;;5112946;28;20178;-78
2021/05/12 10:04:36;;;;;;;8.33;3.37;;;18.40;1.00;;;;;;5111946;28;20173;-79
2021/05/12 10:07:22;;;;;;;7.53;2.83;;;18.00;1.00;;;;;;5110964;28;20567;-79
2021/05/12 10:09:49;;;;;;;5.73;2.67;;;18.00;1.00;;;;;;5113046;28;20217;-80
2021/05/12 10:12:23;;;;;;;6.20;2.60;;;17.90;1.00;;;;;;5094774;28;20253;-80
2021/05/12 10:14:51;;;;;;;8.67;2.53;;;17.70;1.00;;;;;;5112911;28;20651;-80
2021/05/12 10:17:18;;;;;;;8.83;3.00;;;17.90;1.00;;;;;;5092378;28;20182;-78
2021/05/12 10:19:45;;;;;;;10.03;2.80;;;17.90;1.00;;;;;;5092271;28;20256;-79
2021/05/12 10:22:12;;;;;;;7.30;2.03;;;18.00;1.00;;;;;;5096224;28;20171;-77
2021/05/12 10:24:40;;;;;;;6.53;2.23;;;17.80;1.00;;;;;;5112304;28;20170;-78
2021/05/12 10:27:13;;;;;;;8.90;2.33;;;17.90;1.00;;;;;;5112702;28;20181;-80
2021/05/12 10:29:42;;;;;;;7.20;2.00;;;18.10;1.00;;;;;;5112687;28;20195;-78
2021/05/12 10:32:19;;;;;;;6.57;2.33;;;18.30;1.00;;;;;;5112507;28;20167;-79
2021/05/12 10:34:47;;;;;;;6.23;1.93;;;18.40;1.00;;;;;;5112352;28;20193;-81
2021/05/12 10:37:25;;;;;;;8.77;2.43;;;18.60;1.00;;;;;;5112168;28;20186;-79
2021/05/12 10:39:53;;;;;;;7.03;2.37;;;18.60;1.00;;;;;;5112558;28;20539;-80
2021/05/12 10:42:44;;;;;;;7.60;2.47;;;18.70;1.00;;;;;;5112178;28;20171;-80
2021/05/12 10:45:10;;;;;;;9.10;2.50;;;18.90;1.00;;;;;;5112027;28;20159;-79
2021/05/12 10:47:37;;;;;;;6.73;2.00;;;18.70;1.00;;;;;;5112287;28;20174;-78
2021/05/12 10:50:03;;;;;;;6.50;2.30;;;18.20;1.00;;;;;;5104476;28;20207;-79
2021/05/12 10:52:29;;;;;;;5.63;2.27;;;17.60;99.90;;;;;;5100426;28;20168;-79
2021/05/12 10:54:55;;;;;;;9.00;1.50;;;16.90;99.90;;;;;;5092207;28;20187;-77
2021/05/12 10:57:49;;;;;;;7.47;2.17;;;16.40;1.00;;;;;;5112394;28;20218;-78
2021/05/12 11:00:16;;;;;;;8.97;3.27;;;16.30;99.90;;;;;;5111898;28;20178;-80
2021/05/12 11:03:04;;;;;;;10.37;2.53;;;16.40;99.90;;;;;;5111671;28;20266;-78
2021/05/12 11:05:51;;;;;;;7.10;2.23;;;16.20;1.00;;;;;;5111702;28;20510;-79
2021/05/12 11:08:18;;;;;;;7.27;2.97;;;16.30;1.00;;;;;;5111828;28;20185;-79
2021/05/12 11:10:50;;;;;;;7.70;4.20;;;16.40;99.90;;;;;;5110899;28;20207;-79
2021/05/12 11:13:24;;;;;;;5.93;3.00;;;16.60;99.90;;;;;;5111363;28;20197;-79
2021/05/12 11:15:58;;;;;;;6.57;2.77;;;16.70;99.90;;;;;;5111685;28;20187;-78
2021/05/12 11:18:40;;;;;;;6.77;3.07;;;16.80;1.00;;;;;;5111487;28;20213;-79
2021/05/12 11:21:37;;;;;;;5.27;1.97;;;16.90;1.00;;;;;;5111175;28;20244;-80
2021/05/12 11:24:09;;;;;;;6.40;2.40;;;17.10;99.90;;;;;;5093173;28;20171;-80
2021/05/12 11:32:05;;;;;;;5.23;3.00;;;17.70;99.90;;;;;;5111643;28;20598;-78
2021/05/12 11:34:31;;;;;;;5.07;1.53;;;17.90;1.00;;;;;;5111390;28;20232;-79
2021/05/12 11:37:13;;;;;;;3.60;1.77;;;17.80;1.00;;;;;;5093265;28;20183;-80
2021/05/12 11:39:40;;;;;;;7.37;1.70;;;17.80;99.90;;;;;;5111842;28;20224;-80
2021/05/12 11:42:29;;;;;;;4.77;1.30;;;17.90;99.90;;;;;;5111864;28;20217;-79
2021/05/12 11:45:25;;;;;;;4.27;1.10;;;18.10;1.00;;;;;;5111419;28;20216;-81
2021/05/12 11:48:06;;;;;;;8.37;2.60;;;18.60;1.00;;;;;;5090250;28;20330;-80
2021/05/12 11:50:39;;;;;;;5.23;2.00;;;18.80;1.00;;;;;;5111446;28;20252;-81
2021/05/12 11:53:05;;;;;;;5.30;1.70;;;18.80;1.00;;;;;;5111763;28;20167;-82
2021/05/12 11:55:33;;;;;;;6.10;1.70;;;19.00;1.00;;;;;;5111592;28;20298;-81
2021/05/12 11:57:59;;;;;;;7.13;2.33;;;19.10;1.00;;;;;;5111659;28;20599;-80
2021/05/12 12:00:43;;;;;;;7.13;2.50;;;18.70;1.00;;;;;;5111121;28;20175;-78
2021/05/12 12:03:11;;;;;;;9.07;2.33;;;18.10;1.00;;;;;;5110982;28;20194;-79
2021/05/12 12:05:48;;;;;;;5.17;2.37;;;17.90;71.50;;;;;;5111509;28;20245;-78
2021/05/12 12:08:16;;;;;;;5.83;2.50;;;17.90;99.90;;;;;;5111086;28;20223;-80
2021/05/12 12:10:43;;;;;;;5.13;2.40;;;18.00;1.00;;;;;;5111013;28;20203;-78
2021/05/12 12:13:17;;;;;;;4.20;2.40;;;18.00;1.00;;;;;;5110689;28;20467;-79
2021/05/12 12:15:44;;;;;;;9.13;2.87;;;17.70;21.20;;;;;;5111351;28;20276;-82
2021/05/12 12:18:10;;;;;;;10.20;3.10;;;17.50;99.90;;;;;;5110649;28;20170;-80
2021/05/12 12:20:37;;;;;;;7.07;2.73;;;17.40;99.90;;;;;;5111756;28;20198;-80
2021/05/12 12:23:04;;;;;;;6.10;2.93;;;17.20;1.00;;;;;;5114497;28;20171;-78
2021/05/12 12:25:51;;;;;;;9.30;2.90;;;17.30;99.90;;;;;;5096327;28;20649;-79
2021/05/12 12:28:17;;;;;;;7.87;2.67;;;17.30;99.90;;;;;;5114160;28;20163;-79
2021/05/12 12:30:43;;;;;;;8.17;2.77;;;17.30;99.90;;;;;;5113974;28;20585;-78
2021/05/12 12:33:09;;;;;;;7.40;2.60;;;17.60;99.90;;;;;;5113621;28;20178;-76
2021/05/12 12:35:34;;;;;;;8.23;3.17;;;17.60;99.90;;;;;;5095582;28;20298;-79
2021/05/12 12:38:11;;;;;;;10.17;3.13;;;17.70;99.90;;;;;;5114270;28;20174;-79
2021/05/12 12:40:44;;;;;;;8.87;2.70;;;17.50;99.90;;;;;;5096117;28;20174;-77
2021/05/12 12:43:10;;;;;;;8.13;2.77;;;17.70;99.90;;;;;;5114121;28;20193;-79
2021/05/12 12:45:36;;;;;;;8.50;2.73;;;17.90;11.10;;;;;;5115325;28;20169;-78
2021/05/12 12:48:04;;;;;;;5.70;2.50;;;18.10;1.00;;;;;;5094822;28;20163;-79
2021/05/12 12:50:36;;;;;;;7.30;2.67;;;18.30;1.00;;;;;;5112804;28;20290;-80
2021/05/12 12:53:06;;;;;;;8.70;2.37;;;18.30;1.00;;;;;;5112029;28;20639;-79
2021/05/12 12:55:34;;;;;;;10.13;3.27;;;18.30;1.00;;;;;;5112111;28;20276;-78
2021/05/12 12:58:11;;;;;;;8.97;3.17;;;18.50;1.00;;;;;;5112882;28;20171;-80
2021/05/12 13:00:45;;;;;;;7.20;2.97;;;18.50;1.00;;;;;;5112688;28;20183;-80
2021/05/12 13:03:19;;;;;;;10.13;2.60;;;18.50;1.00;;;;;;5113154;28;20190;-80
2021/05/12 13:05:49;;;;;;;9.50;2.70;;;18.50;1.00;;;;;;5113188;28;20729;-81